createdAt,value
2023-03-05T00:00:22.515Z,30.02
2023-03-05T00:04:22.536Z,30.01
2023-03-05T00:08:22.574Z,29.99
2023-03-05T00:12:22.568Z,30.00
2023-03-05T00:16:22.696Z,29.99
2023-03-05T00:20:22.699Z,30.01
2023-03-05T00:24:22.651Z,29.96
2023-03-05T00:28:22.677Z,29.97
2023-03-05T00:32:22.792Z,29.94
2023-03-05T00:36:22.731Z,29.96
2023-03-05T00:40:22.767Z,29.94
2023-03-05T00:44:22.658Z,29.97
2023-03-05T00:48:23.458Z,29.92
2023-03-05T00:52:22.591Z,29.92
2023-03-05T00:56:22.579Z,29.94
2023-03-05T01:00:22.526Z,29.90
2023-03-05T01:04:22.509Z,29.92
2023-03-05T01:08:22.498Z,29.89
2023-03-05T01:12:22.472Z,29.88
2023-03-05T01:16:22.527Z,29.90
2023-03-05T01:20:22.481Z,29.84
2023-03-05T01:24:22.442Z,29.86
2023-03-05T01:28:22.356Z,29.87
2023-03-05T01:32:22.324Z,29.85
2023-03-05T01:36:22.303Z,29.83
2023-03-05T01:40:22.245Z,29.82
2023-03-05T01:44:22.176Z,29.84
2023-03-05T01:48:22.134Z,29.81
2023-03-05T01:52:22.087Z,29.82
2023-03-05T01:56:22.044Z,29.79
2023-03-05T02:00:21.991Z,29.80
2023-03-05T02:04:21.930Z,29.79
2023-03-05T02:08:21.898Z,29.76
2023-03-05T02:12:21.850Z,29.76
2023-03-05T02:16:21.823Z,29.75
2023-03-05T02:20:21.801Z,29.75
2023-03-05T02:24:21.719Z,29.76
2023-03-05T02:28:21.676Z,29.74
2023-03-05T02:32:21.726Z,29.74
2023-03-05T02:36:21.620Z,29.72
2023-03-05T02:40:21.631Z,29.72
2023-03-05T02:44:21.561Z,29.71
2023-03-05T02:48:21.514Z,29.71
2023-03-05T02:52:21.453Z,29.69
2023-03-05T02:56:21.430Z,29.69
2023-03-05T03:00:21.390Z,29.68
2023-03-05T03:04:21.388Z,29.70
2023-03-05T03:08:21.316Z,29.68
2023-03-05T03:12:21.302Z,29.67
2023-03-05T03:16:21.284Z,29.64
2023-03-05T03:20:21.250Z,29.64
2023-03-05T03:24:21.214Z,29.64
2023-03-05T03:28:21.186Z,29.63
2023-03-05T03:32:21.188Z,29.63
2023-03-05T03:36:21.140Z,29.63
2023-03-05T03:40:21.122Z,29.62
2023-03-05T03:44:21.085Z,29.60
2023-03-05T03:48:21.065Z,29.60
2023-03-05T03:52:21.050Z,29.58
2023-03-05T03:56:21.021Z,29.58
2023-03-05T04:00:21.010Z,29.57
2023-03-05T04:04:21.007Z,29.57
2023-03-05T04:08:20.939Z,29.57
2023-03-05T04:12:20.913Z,29.56
2023-03-05T04:16:20.941Z,29.55
2023-03-05T04:20:20.925Z,29.55
2023-03-05T04:24:20.939Z,29.56
2023-03-05T04:28:20.891Z,29.54
2023-03-05T04:32:20.904Z,29.54
2023-03-05T04:36:20.868Z,29.50
2023-03-05T04:40:20.868Z,29.52
2023-03-05T04:44:20.857Z,29.50
2023-03-05T04:48:20.831Z,29.48
2023-03-05T04:52:20.884Z,29.50
2023-03-05T04:56:20.842Z,29.51
2023-03-05T05:00:20.836Z,29.50
2023-03-05T05:04:20.863Z,29.47
2023-03-05T05:08:20.848Z,29.45
2023-03-05T05:12:20.866Z,29.47
2023-03-05T05:16:20.856Z,29.45
2023-03-05T05:20:20.856Z,29.45
2023-03-05T05:24:20.852Z,29.43
2023-03-05T05:28:20.831Z,29.44
2023-03-05T05:32:20.908Z,29.42
2023-03-05T05:36:20.904Z,29.39
2023-03-05T05:40:20.912Z,29.41
2023-03-05T05:44:20.884Z,29.40
2023-03-05T05:48:20.921Z,29.41
2023-03-05T05:52:20.909Z,29.39
2023-03-05T05:56:20.912Z,29.40
2023-03-05T06:00:20.935Z,29.40
2023-03-05T06:04:20.975Z,29.37
2023-03-05T06:08:20.950Z,29.39
2023-03-05T06:12:20.984Z,29.36
2023-03-05T06:16:21.031Z,29.37
2023-03-05T06:20:20.959Z,29.36
2023-03-05T06:24:20.941Z,29.35
2023-03-05T06:28:20.915Z,29.33
2023-03-05T06:32:20.935Z,29.35
2023-03-05T06:36:20.878Z,29.32
2023-03-05T06:40:20.845Z,29.30
2023-03-05T06:44:20.822Z,29.31
2023-03-05T06:48:20.764Z,29.29
2023-03-05T06:52:20.716Z,29.26
2023-03-05T06:56:20.696Z,29.28
2023-03-05T07:00:20.636Z,29.24
2023-03-05T07:04:20.610Z,29.25
2023-03-05T07:08:20.555Z,29.24
2023-03-05T07:12:20.552Z,29.24
2023-03-05T07:16:20.567Z,29.23
2023-03-05T07:20:20.566Z,29.20
2023-03-05T07:24:20.483Z,29.18
2023-03-05T07:28:20.436Z,29.11
2023-03-05T07:32:20.484Z,29.09
2023-03-05T07:36:20.393Z,29.06
2023-03-05T07:40:20.348Z,28.96
2023-03-05T07:44:20.317Z,28.86
2023-03-05T07:48:20.245Z,28.82
2023-03-05T07:52:20.179Z,28.78
2023-03-05T07:56:20.121Z,28.70
2023-03-05T08:00:20.151Z,28.61
2023-03-05T08:04:20.252Z,28.37
2023-03-05T08:08:19.948Z,27.55
2023-03-05T08:12:19.863Z,26.58
2023-03-05T08:16:19.979Z,26.43
2023-03-05T08:20:19.957Z,27.25
2023-03-05T08:24:19.764Z,26.97
2023-03-05T08:28:19.695Z,25.91
2023-03-05T08:32:19.668Z,24.80
2023-03-05T08:36:19.456Z,24.21
2023-03-05T08:40:19.293Z,25.54
2023-03-05T08:44:19.226Z,24.27
2023-03-05T08:48:19.034Z,23.46
2023-03-05T08:52:19.037Z,24.08
2023-03-05T08:56:18.911Z,25.63
2023-03-05T09:00:19.008Z,25.39
2023-03-05T09:04:19.145Z,24.91
2023-03-05T09:08:18.918Z,25.17
2023-03-05T09:12:18.764Z,25.56
2023-03-05T09:16:18.642Z,25.87
2023-03-05T09:20:18.489Z,26.13
2023-03-05T09:24:44.163Z,26.35
2023-03-05T09:28:44.127Z,26.50
2023-03-05T09:32:44.112Z,26.57
2023-03-05T09:36:43.989Z,26.62
2023-03-05T09:40:43.979Z,26.70
2023-03-05T09:44:43.947Z,26.70
2023-03-05T09:48:43.918Z,26.64
2023-03-05T09:52:43.863Z,26.56
2023-03-05T09:56:43.858Z,26.54
2023-03-05T10:00:43.815Z,26.54
2023-03-05T10:04:43.768Z,26.53
2023-03-05T10:08:43.716Z,26.57
2023-03-05T10:12:43.705Z,26.56
2023-03-05T10:16:43.845Z,26.57
2023-03-05T10:20:43.878Z,26.58
2023-03-05T10:24:43.894Z,26.57
2023-03-05T10:28:43.996Z,26.60
2023-03-05T10:32:44.042Z,26.64
2023-03-05T10:36:44.067Z,26.65
2023-03-05T10:40:44.075Z,26.69
2023-03-05T10:44:44.100Z,26.68
2023-03-05T10:48:44.081Z,26.68
2023-03-05T10:52:44.066Z,26.67
2023-03-05T10:56:44.030Z,26.63
2023-03-05T11:00:43.998Z,26.64
2023-03-05T11:04:43.954Z,26.64
2023-03-05T11:08:43.915Z,26.68
2023-03-05T11:12:43.800Z,26.71
2023-03-05T11:16:43.717Z,26.73
2023-03-05T11:20:43.644Z,26.75
2023-03-05T11:24:43.573Z,26.77
2023-03-05T11:28:43.525Z,26.81
2023-03-05T11:32:43.414Z,26.82
2023-03-05T11:36:43.391Z,26.84
2023-03-05T11:40:43.313Z,26.84
2023-03-05T11:44:43.257Z,26.86
2023-03-05T11:48:43.171Z,26.90
2023-03-05T11:52:43.063Z,26.89
2023-03-05T11:56:43.110Z,26.89
2023-03-05T12:00:43.225Z,26.92
2023-03-05T12:04:43.316Z,26.93
2023-03-05T12:08:43.449Z,26.90
2023-03-05T12:12:43.668Z,26.93
2023-03-05T12:16:43.907Z,26.94
2023-03-05T12:20:44.391Z,26.94
2023-03-05T12:24:43.759Z,26.92
2023-03-05T12:28:44.345Z,26.92
2023-03-05T12:32:43.882Z,26.93
2023-03-05T12:36:43.804Z,26.97
2023-03-05T12:40:43.703Z,26.92
2023-03-05T12:44:43.664Z,26.95
2023-03-05T12:48:43.652Z,26.97
2023-03-05T12:52:43.524Z,26.96
2023-03-05T12:56:43.483Z,26.99
2023-03-05T13:00:43.418Z,26.99
2023-03-05T13:04:43.320Z,26.98
2023-03-05T13:08:43.271Z,26.99
2023-03-05T13:12:43.178Z,26.97
2023-03-05T13:16:43.356Z,27.00
2023-03-05T13:20:43.286Z,26.99
2023-03-05T13:24:43.196Z,26.97
2023-03-05T13:28:43.082Z,26.98
2023-03-05T13:32:43.105Z,26.97
2023-03-05T13:36:42.922Z,26.95
2023-03-05T13:40:42.824Z,26.98
2023-03-05T13:44:42.750Z,26.97
2023-03-05T13:48:42.676Z,26.97
2023-03-05T13:52:42.564Z,26.95
2023-03-05T13:56:42.477Z,26.97
2023-03-05T14:00:42.409Z,26.95
2023-03-05T14:04:42.311Z,26.97
2023-03-05T14:08:42.208Z,26.97
2023-03-05T14:12:42.112Z,26.97
2023-03-05T14:16:42.032Z,26.98
2023-03-05T14:20:41.986Z,26.99
2023-03-05T14:24:41.860Z,26.98
2023-03-05T14:28:41.803Z,26.97
2023-03-05T14:32:41.847Z,26.99
2023-03-05T14:36:41.701Z,26.99
2023-03-05T14:40:41.582Z,26.96
2023-03-05T14:44:41.533Z,26.99
2023-03-05T14:48:41.489Z,27.00
2023-03-05T14:52:41.345Z,27.00
2023-03-05T14:56:41.281Z,27.00
2023-03-05T15:00:41.191Z,27.01
2023-03-05T15:04:41.121Z,27.01
2023-03-05T15:08:41.141Z,27.03
2023-03-05T15:12:40.918Z,27.04
2023-03-05T15:16:40.859Z,27.09
2023-03-05T15:20:40.791Z,27.09
2023-03-05T15:24:40.714Z,27.11
2023-03-05T15:28:40.674Z,27.12
2023-03-05T15:32:40.683Z,27.15
2023-03-05T15:36:40.544Z,27.15
2023-03-05T15:40:40.517Z,27.17
2023-03-05T15:44:40.423Z,27.19
2023-03-05T15:48:40.896Z,27.18
2023-03-05T15:52:40.307Z,27.19
2023-03-05T15:56:40.249Z,27.17
2023-03-05T16:00:40.196Z,27.20
2023-03-05T16:04:40.231Z,27.19
2023-03-05T16:08:40.227Z,27.20
2023-03-05T16:12:40.177Z,27.22
2023-03-05T16:16:40.233Z,27.23
2023-03-05T16:20:40.180Z,27.22
2023-03-05T16:24:40.192Z,27.25
2023-03-05T16:28:40.229Z,27.26
2023-03-05T16:32:40.298Z,27.24
2023-03-05T16:36:40.279Z,27.30
2023-03-05T16:41:06.185Z,27.29
2023-03-05T16:44:41.324Z,27.30
2023-03-05T16:48:40.258Z,27.32
2023-03-05T16:52:40.209Z,27.33
2023-03-05T16:56:40.127Z,27.34
2023-03-05T17:00:40.156Z,27.37
2023-03-05T17:04:40.144Z,27.41
2023-03-05T17:08:40.211Z,27.41
2023-03-05T17:12:40.330Z,27.40
2023-03-05T17:16:40.472Z,27.43
2023-03-05T17:20:40.530Z,27.39
2023-03-05T17:24:40.678Z,27.39
2023-03-05T17:28:40.728Z,27.38
2023-03-05T17:32:40.891Z,27.38
2023-03-05T17:36:40.972Z,27.35
2023-03-05T17:40:41.083Z,27.37
2023-03-05T17:44:41.179Z,27.36
2023-03-05T17:48:41.302Z,27.34
2023-03-05T17:52:41.460Z,27.39
2023-03-05T17:56:41.579Z,27.37
2023-03-05T18:00:41.716Z,27.40
2023-03-05T18:04:41.896Z,27.42
2023-03-05T18:08:42.006Z,27.42
2023-03-05T18:12:42.177Z,27.38
2023-03-05T18:16:42.388Z,27.39
2023-03-05T18:20:42.511Z,27.41
2023-03-05T18:24:42.667Z,27.39
2023-03-05T18:28:42.858Z,27.37
2023-03-05T18:32:43.060Z,27.34
2023-03-05T18:36:43.258Z,27.31
2023-03-05T18:40:43.223Z,27.28
2023-03-05T18:44:43.183Z,27.27
2023-03-05T18:48:43.184Z,27.24
2023-03-05T18:52:43.140Z,27.23
2023-03-05T18:56:43.136Z,27.27
2023-03-05T19:00:43.107Z,27.20
2023-03-05T19:04:43.114Z,27.23
2023-03-05T19:08:43.071Z,27.23
2023-03-05T19:12:43.007Z,27.27
2023-03-05T19:16:42.986Z,27.21
2023-03-05T19:20:43.042Z,27.28
2023-03-05T19:24:43.240Z,27.26
2023-03-05T19:28:43.454Z,27.24
2023-03-05T19:32:43.661Z,27.24
2023-03-05T19:36:43.805Z,27.27
2023-03-05T19:40:43.914Z,27.28
2023-03-05T19:44:44.023Z,27.31
2023-03-05T19:48:44.155Z,27.28
2023-03-05T19:52:44.355Z,27.31
2023-03-05T19:56:44.562Z,27.31
2023-03-05T20:00:44.751Z,27.30
2023-03-05T20:04:44.811Z,27.32
2023-03-05T20:08:44.893Z,27.30
2023-03-05T20:12:44.976Z,27.32
2023-03-05T20:16:45.037Z,27.30
2023-03-05T20:20:45.058Z,27.28
2023-03-05T20:24:45.070Z,27.30
2023-03-05T20:28:45.022Z,27.28
2023-03-05T20:32:45.055Z,27.33
2023-03-05T20:36:45.109Z,27.31
2023-03-05T20:40:45.103Z,27.32
2023-03-05T20:44:45.123Z,27.32
2023-03-05T20:48:45.118Z,27.30
2023-03-05T20:52:45.117Z,27.29
2023-03-05T20:56:45.628Z,27.28
2023-03-05T21:00:45.184Z,27.29
2023-03-05T21:04:45.191Z,27.27
2023-03-05T21:08:45.207Z,27.27
2023-03-05T21:12:45.640Z,27.29
2023-03-05T21:16:45.328Z,27.30
2023-03-05T21:20:45.297Z,27.26
2023-03-05T21:24:45.326Z,27.26
2023-03-05T21:28:45.386Z,27.24
2023-03-05T21:32:45.422Z,27.27
2023-03-05T21:36:45.443Z,27.27
2023-03-05T21:40:45.551Z,27.26
2023-03-05T21:44:45.527Z,27.25
2023-03-05T21:48:45.588Z,27.23
2023-03-05T21:52:45.653Z,27.24
2023-03-05T21:56:45.672Z,27.25
2023-03-05T22:00:45.776Z,27.22
2023-03-05T22:04:45.749Z,27.20
2023-03-05T22:08:45.812Z,27.22
2023-03-05T22:12:45.834Z,27.21
2023-03-05T22:16:46.092Z,27.21
2023-03-05T22:20:45.964Z,27.19
2023-03-05T22:24:46.043Z,27.20
2023-03-05T22:28:46.109Z,27.20
2023-03-05T22:32:47.156Z,27.20
2023-03-05T22:36:46.258Z,27.19
2023-03-05T22:40:46.308Z,27.18
2023-03-05T22:44:46.329Z,27.20
2023-03-05T22:48:46.411Z,27.17
2023-03-05T22:52:46.518Z,27.17
2023-03-05T22:56:46.550Z,27.16
2023-03-05T23:00:46.674Z,27.15
2023-03-05T23:04:46.718Z,27.17
2023-03-05T23:08:46.782Z,27.18
2023-03-05T23:12:46.900Z,27.14
2023-03-05T23:16:46.986Z,27.15
2023-03-05T23:20:47.086Z,27.13
2023-03-05T23:24:47.180Z,27.13
2023-03-05T23:28:47.292Z,27.13
2023-03-05T23:32:47.367Z,27.11
2023-03-05T23:36:47.487Z,27.11
2023-03-05T23:40:47.549Z,27.10
2023-03-05T23:44:47.632Z,27.10
2023-03-05T23:48:47.736Z,27.13
2023-03-05T23:52:47.845Z,27.11
2023-03-05T23:56:48.001Z,27.10
